Aviation Digital Data Service (ADDS)

Output produced by METARs form (0436 UTC 24 January 2019)
found at http://www.aviationweather.gov/metar/data/
 
Forecast for: MUHA (HAVANA/JOSE MAR , CU)
Text: MUHA 232300Z 2400/2424 17008KT 9000 FEW030
Forecast period: 0000 UTC 24 January 2019 to 0000 UTC 25 January 2019
Forecast type: FROM: standard forecast or significant change
Winds: from the S (170 degrees) at 9 MPH (8 knots; 4.1 m/s)
Visibility: 6 miles (9 km)
Ceiling: at least 12,000 feet AGL
Clouds: few clouds at 3000 feet AGL
Weather: no significant weather forecast for this period
Text: TEMPO 2416/2424 3000 SHRA FEW015 BKN020
Forecast period: 1600 UTC 24 January 2019 to 0000 UTC 25 January 2019
Forecast type: TEMPORARY: The following changes expected for less than half the time period
Visibility: 1.86 miles (2.99 km)
Ceiling: 2000 feet AGL
Clouds: few clouds at 1500 feet AGL
broken clouds at 2000 feet AGL
Weather: SHRA  (rain showers)